sensor_id;sensor_type;location;lat;lon;timestamp;pressure;altitude;pressure_sealevel;temperature;humidity
52105;BME280;38103;42.776;23.112;2023-02-19T00:03:33;94126.00;;;5.21;58.27
52105;BME280;38103;42.776;23.112;2023-02-19T00:06:06;94268.53;;;6.19;58.23
52105;BME280;38103;42.776;23.112;2023-02-19T00:08:32;94252.22;;;6.23;58.03
52105;BME280;38103;42.776;23.112;2023-02-19T00:11:05;94260.88;;;6.24;57.96
52105;BME280;38103;42.776;23.112;2023-02-19T00:13:35;94260.28;;;6.22;57.93
52105;BME280;38103;42.776;23.112;2023-02-19T00:16:07;94263.72;;;6.16;58.33
52105;BME280;38103;42.776;23.112;2023-02-19T00:18:33;94265.31;;;6.17;58.11
52105;BME280;38103;42.776;23.112;2023-02-19T00:20:59;94257.44;;;6.17;58.02
52105;BME280;38103;42.776;23.112;2023-02-19T00:23:24;94257.25;;;6.18;58.13
52105;BME280;38103;42.776;23.112;2023-02-19T00:25:51;94212.97;;;5.95;58.29
52105;BME280;38103;42.776;23.112;2023-02-19T00:28:17;94245.72;;;6.12;58.60
52105;BME280;38103;42.776;23.112;2023-02-19T00:30:42;94248.56;;;6.18;58.14
52105;BME280;38103;42.776;23.112;2023-02-19T00:33:08;94240.09;;;6.16;58.38
52105;BME280;38103;42.776;23.112;2023-02-19T00:35:34;94191.53;;;5.91;58.26
52105;BME280;38103;42.776;23.112;2023-02-19T00:37:59;94237.88;;;6.26;58.15
52105;BME280;38103;42.776;23.112;2023-02-19T00:40:25;94209.38;;;6.23;57.88
52105;BME280;38103;42.776;23.112;2023-02-19T00:42:51;94212.63;;;6.32;57.86
52105;BME280;38103;42.776;23.112;2023-02-19T00:45:16;94216.25;;;6.24;58.29
52105;BME280;38103;42.776;23.112;2023-02-19T00:47:42;94221.50;;;6.24;58.26
52105;BME280;38103;42.776;23.112;2023-02-19T00:50:08;94189.56;;;6.13;57.98
52105;BME280;38103;42.776;23.112;2023-02-19T00:52:33;94216.66;;;6.34;58.09
52105;BME280;38103;42.776;23.112;2023-02-19T00:54:58;94223.16;;;6.39;57.96
52105;BME280;38103;42.776;23.112;2023-02-19T00:57:24;94211.41;;;6.48;57.82
52105;BME280;38103;42.776;23.112;2023-02-19T00:59:49;94220.50;;;6.52;57.77
52105;BME280;38103;42.776;23.112;2023-02-19T01:02:15;94220.72;;;6.51;57.61
52105;BME280;38103;42.776;23.112;2023-02-19T01:04:40;94184.75;;;6.17;57.73
52105;BME280;38103;42.776;23.112;2023-02-19T01:07:05;94227.19;;;6.48;57.60
52105;BME280;38103;42.776;23.112;2023-02-19T01:09:31;94217.47;;;6.55;57.39
52105;BME280;38103;42.776;23.112;2023-02-19T01:11:56;94213.03;;;6.63;57.28
52105;BME280;38103;42.776;23.112;2023-02-19T01:14:21;94217.50;;;6.62;57.02
52105;BME280;38103;42.776;23.112;2023-02-19T01:16:47;94223.94;;;6.73;56.94
52105;BME280;38103;42.776;23.112;2023-02-19T01:19:12;94225.97;;;6.71;56.63
52105;BME280;38103;42.776;23.112;2023-02-19T01:21:38;94227.16;;;6.75;56.53
52105;BME280;38103;42.776;23.112;2023-02-19T01:24:04;94232.84;;;6.72;56.45
52105;BME280;38103;42.776;23.112;2023-02-19T01:26:31;94247.41;;;6.75;56.43
52105;BME280;38103;42.776;23.112;2023-02-19T01:28:57;94211.44;;;6.41;56.39
52105;BME280;38103;42.776;23.112;2023-02-19T01:31:23;94257.50;;;6.71;56.27
52105;BME280;38103;42.776;23.112;2023-02-19T01:33:51;94259.13;;;6.72;56.31
52105;BME280;38103;42.776;23.112;2023-02-19T01:36:17;94259.50;;;6.55;56.40
52105;BME280;38103;42.776;23.112;2023-02-19T01:38:43;94265.56;;;6.56;56.34
52105;BME280;38103;42.776;23.112;2023-02-19T01:41:11;94220.69;;;6.30;56.54
52105;BME280;38103;42.776;23.112;2023-02-19T01:44:00;94269.63;;;6.72;56.08
52105;BME280;38103;42.776;23.112;2023-02-19T01:46:39;94263.13;;;6.68;56.14
52105;BME280;38103;42.776;23.112;2023-02-19T01:49:14;94263.97;;;6.68;56.23
52105;BME280;38103;42.776;23.112;2023-02-19T01:51:45;94258.31;;;6.65;56.06
52105;BME280;38103;42.776;23.112;2023-02-19T01:54:15;94222.72;;;6.42;56.45
52105;BME280;38103;42.776;23.112;2023-02-19T01:56:42;94190.81;;;6.24;56.39
52105;BME280;38103;42.776;23.112;2023-02-19T01:59:09;94218.09;;;6.44;56.26
52105;BME280;38103;42.776;23.112;2023-02-19T02:01:37;94218.69;;;6.46;56.02
52105;BME280;38103;42.776;23.112;2023-02-19T02:04:04;94257.50;;;6.71;56.00
52105;BME280;38103;42.776;23.112;2023-02-19T02:06:34;94197.66;;;6.39;56.08
52105;BME280;38103;42.776;23.112;2023-02-19T02:09:01;94251.41;;;6.70;55.83
52105;BME280;38103;42.776;23.112;2023-02-19T02:11:50;94242.75;;;6.70;55.73
52105;BME280;38103;42.776;23.112;2023-02-19T02:14:18;94249.00;;;6.62;55.88
52105;BME280;38103;42.776;23.112;2023-02-19T02:17:01;94246.19;;;6.57;55.94
52105;BME280;38103;42.776;23.112;2023-02-19T02:24:55;94240.72;;;6.31;56.75
52105;BME280;38103;42.776;23.112;2023-02-19T02:27:38;94236.25;;;6.25;57.12
52105;BME280;38103;42.776;23.112;2023-02-19T02:33:19;94247.31;;;6.13;57.75
52105;BME280;38103;42.776;23.112;2023-02-19T02:35:56;94245.72;;;6.19;57.51
52105;BME280;38103;42.776;23.112;2023-02-19T02:38:26;94252.56;;;6.13;57.77
52105;BME280;38103;42.776;23.112;2023-02-19T02:40:54;94235.16;;;5.99;58.39
52105;BME280;38103;42.776;23.112;2023-02-19T02:43:20;94256.22;;;6.12;58.47
52105;BME280;38103;42.776;23.112;2023-02-19T02:45:45;94246.53;;;6.20;57.94
52105;BME280;38103;42.776;23.112;2023-02-19T02:50:51;94248.16;;;6.34;57.67
52105;BME280;38103;42.776;23.112;2023-02-19T02:56:09;94239.69;;;6.32;57.80
52105;BME280;38103;42.776;23.112;2023-02-19T02:58:36;94232.84;;;6.31;57.91
52105;BME280;38103;42.776;23.112;2023-02-19T03:01:07;94239.91;;;6.37;57.62
52105;BME280;38103;42.776;23.112;2023-02-19T03:03:57;94239.28;;;6.42;57.32
52105;BME280;38103;42.776;23.112;2023-02-19T03:06:28;94235.84;;;6.42;57.31
52105;BME280;38103;42.776;23.112;2023-02-19T03:09:10;94201.91;;;6.20;57.26
52105;BME280;38103;42.776;23.112;2023-02-19T03:11:39;94236.47;;;6.30;57.58
52105;BME280;38103;42.776;23.112;2023-02-19T03:14:31;94248.56;;;6.18;58.24
52105;BME280;38103;42.776;23.112;2023-02-19T03:17:21;94249.34;;;6.11;58.50
52105;BME280;38103;42.776;23.112;2023-02-19T03:20:11;94268.28;;;6.00;59.01
52105;BME280;38103;42.776;23.112;2023-02-19T03:22:39;94245.22;;;5.81;59.56
52105;BME280;38103;42.776;23.112;2023-02-19T03:27:53;94258.13;;;5.83;60.51
52105;BME280;38103;42.776;23.112;2023-02-19T03:30:23;94265.81;;;5.85;60.77
52105;BME280;38103;42.776;23.112;2023-02-19T03:32:58;94220.50;;;5.48;60.79
52105;BME280;38103;42.776;23.112;2023-02-19T03:35:30;94273.09;;;5.89;60.66
52105;BME280;38103;42.776;23.112;2023-02-19T03:40:28;94286.06;;;5.98;60.49
52105;BME280;38103;42.776;23.112;2023-02-19T03:44:06;94289.66;;;5.97;60.75
52105;BME280;38103;42.776;23.112;2023-02-19T03:46:11;94299.56;;;5.95;60.77
52105;BME280;38103;42.776;23.112;2023-02-19T03:48:51;94295.69;;;5.84;61.85
52105;BME280;38103;42.776;23.112;2023-02-19T03:56:34;94302.94;;;5.88;61.92
52105;BME280;38103;42.776;23.112;2023-02-19T03:59:04;94303.56;;;5.90;61.87
52105;BME280;38103;42.776;23.112;2023-02-19T04:01:47;94304.59;;;5.89;62.17
52105;BME280;38103;42.776;23.112;2023-02-19T04:04:35;94305.41;;;5.90;62.10
52105;BME280;38103;42.776;23.112;2023-02-19T04:07:02;94306.59;;;5.87;62.18
52105;BME280;38103;42.776;23.112;2023-02-19T04:09:37;94303.78;;;5.89;62.19
52105;BME280;38103;42.776;23.112;2023-02-19T04:12:05;94305.97;;;5.85;62.64
52105;BME280;38103;42.776;23.112;2023-02-19T04:14:48;94299.34;;;5.89;62.52
52105;BME280;38103;42.776;23.112;2023-02-19T04:17:24;94303.34;;;5.85;62.53
52105;BME280;38103;42.776;23.112;2023-02-19T04:19:51;94303.34;;;5.85;62.35
52105;BME280;38103;42.776;23.112;2023-02-19T04:22:19;94307.75;;;5.78;62.48
52105;BME280;38103;42.776;23.112;2023-02-19T04:24:49;94306.56;;;5.80;62.39
52105;BME280;38103;42.776;23.112;2023-02-19T04:27:15;94245.06;;;5.41;62.30
52105;BME280;38103;42.776;23.112;2023-02-19T04:29:40;94310.38;;;5.78;62.82
52105;BME280;38103;42.776;23.112;2023-02-19T04:32:06;94262.63;;;5.47;62.90
52105;BME280;38103;42.776;23.112;2023-02-19T04:34:31;94313.38;;;5.75;63.23
52105;BME280;38103;42.776;23.112;2023-02-19T04:36:57;94314.41;;;5.74;63.41
52105;BME280;38103;42.776;23.112;2023-02-19T04:39:22;94320.50;;;5.81;63.06
52105;BME280;38103;42.776;23.112;2023-02-19T04:41:48;94324.16;;;5.87;63.00
52105;BME280;38103;42.776;23.112;2023-02-19T04:44:13;94285.31;;;5.68;62.81
52105;BME280;38103;42.776;23.112;2023-02-19T04:46:40;94319.94;;;5.92;62.76
52105;BME280;38103;42.776;23.112;2023-02-19T04:49:05;94321.16;;;5.90;63.29
52105;BME280;38103;42.776;23.112;2023-02-19T04:51:30;94320.31;;;5.89;63.39
52105;BME280;38103;42.776;23.112;2023-02-19T04:53:56;94324.75;;;5.89;63.16
52105;BME280;38103;42.776;23.112;2023-02-19T04:56:21;94326.56;;;5.88;63.21
52105;BME280;38103;42.776;23.112;2023-02-19T04:58:47;94332.03;;;5.93;62.98
52105;BME280;38103;42.776;23.112;2023-02-19T05:01:12;94276.66;;;5.75;62.21
52105;BME280;38103;42.776;23.112;2023-02-19T05:03:38;94281.56;;;5.91;61.58
52105;BME280;38103;42.776;23.112;2023-02-19T05:06:06;94279.13;;;5.83;61.18
52105;BME280;38103;42.776;23.112;2023-02-19T05:08:32;94328.91;;;6.12;61.09
52105;BME280;38103;42.776;23.112;2023-02-19T05:10:59;94320.03;;;6.13;61.22
52105;BME280;38103;42.776;23.112;2023-02-19T05:13:25;94324.09;;;6.16;60.89
52105;BME280;38103;42.776;23.112;2023-02-19T05:15:58;94326.91;;;6.14;60.96
52105;BME280;38103;42.776;23.112;2023-02-19T05:18:25;94336.19;;;6.17;60.92
52105;BME280;38103;42.776;23.112;2023-02-19T05:20:51;94331.75;;;6.24;61.19
52105;BME280;38103;42.776;23.112;2023-02-19T05:23:18;94326.91;;;6.14;60.97
52105;BME280;38103;42.776;23.112;2023-02-19T05:25:44;94321.69;;;6.21;60.67
52105;BME280;38103;42.776;23.112;2023-02-19T05:28:09;94323.06;;;6.17;60.86
52105;BME280;38103;42.776;23.112;2023-02-19T05:30:45;94321.69;;;6.21;60.70
52105;BME280;38103;42.776;23.112;2023-02-19T05:33:10;94332.19;;;6.21;60.66
52105;BME280;38103;42.776;23.112;2023-02-19T05:36:05;94341.06;;;6.20;60.68
52105;BME280;38103;42.776;23.112;2023-02-19T05:38:31;94343.91;;;6.25;60.29
52105;BME280;38103;42.776;23.112;2023-02-19T05:41:24;94345.31;;;6.21;60.87
52105;BME280;38103;42.776;23.112;2023-02-19T05:43:51;94345.53;;;6.26;61.09
52105;BME280;38103;42.776;23.112;2023-02-19T05:46:19;94340.69;;;6.30;60.88
52105;BME280;38103;42.776;23.112;2023-02-19T05:48:46;94336.66;;;6.34;60.98
52105;BME280;38103;42.776;23.112;2023-02-19T05:51:13;94340.50;;;6.45;60.94
52105;BME280;38103;42.776;23.112;2023-02-19T05:53:40;94334.91;;;6.62;61.12
52105;BME280;38103;42.776;23.112;2023-02-19T05:58:50;94349.69;;;7.03;59.70
52105;BME280;38103;42.776;23.112;2023-02-19T06:01:16;94360.19;;;7.17;59.00
52105;BME280;38103;42.776;23.112;2023-02-19T06:03:42;94339.97;;;7.24;58.17
52105;BME280;38103;42.776;23.112;2023-02-19T06:06:12;94373.53;;;7.49;57.86
52105;BME280;38103;42.776;23.112;2023-02-19T06:08:38;94370.69;;;7.65;57.19
52105;BME280;38103;42.776;23.112;2023-02-19T06:11:03;94377.94;;;7.76;56.72
52105;BME280;38103;42.776;23.112;2023-02-19T06:13:29;94377.69;;;7.91;56.49
52105;BME280;38103;42.776;23.112;2023-02-19T06:15:54;94384.75;;;8.11;55.70
52105;BME280;38103;42.776;23.112;2023-02-19T06:18:20;94380.66;;;8.15;55.49
52105;BME280;38103;42.776;23.112;2023-02-19T06:20:45;94380.22;;;8.25;55.02
52105;BME280;38103;42.776;23.112;2023-02-19T06:23:11;94365.63;;;8.23;55.32
52105;BME280;38103;42.776;23.112;2023-02-19T06:25:36;94388.88;;;8.40;54.82
52105;BME280;38103;42.776;23.112;2023-02-19T06:28:02;94383.78;;;8.45;54.17
52105;BME280;38103;42.776;23.112;2023-02-19T06:30:27;94385.56;;;8.51;54.30
52105;BME280;38103;42.776;23.112;2023-02-19T06:32:52;94387.03;;;8.47;54.40
52105;BME280;38103;42.776;23.112;2023-02-19T06:35:19;94381.72;;;8.60;53.51
52105;BME280;38103;42.776;23.112;2023-02-19T06:37:48;94393.72;;;8.89;53.38
52105;BME280;38103;42.776;23.112;2023-02-19T06:40:14;94395.94;;;9.18;52.63
52105;BME280;38103;42.776;23.112;2023-02-19T06:42:40;94379.19;;;9.31;51.81
52105;BME280;38103;42.776;23.112;2023-02-19T06:45:05;94394.66;;;9.53;52.01
52105;BME280;38103;42.776;23.112;2023-02-19T06:47:31;94383.84;;;9.80;50.95
52105;BME280;38103;42.776;23.112;2023-02-19T06:49:58;94385.63;;;9.86;49.84
52105;BME280;38103;42.776;23.112;2023-02-19T06:52:23;94387.84;;;9.89;50.04
52105;BME280;38103;42.776;23.112;2023-02-19T06:54:49;94396.06;;;10.00;49.77
52105;BME280;38103;42.776;23.112;2023-02-19T06:57:14;94397.81;;;10.25;49.50
52105;BME280;38103;42.776;23.112;2023-02-19T06:59:39;94390.16;;;10.54;48.69
52105;BME280;38103;42.776;23.112;2023-02-19T07:02:05;94401.47;;;10.92;47.63
52105;BME280;38103;42.776;23.112;2023-02-19T07:04:30;94367.69;;;11.18;46.57
52105;BME280;38103;42.776;23.112;2023-02-19T07:06:56;94398.72;;;11.90;45.52
52105;BME280;38103;42.776;23.112;2023-02-19T07:09:21;94397.78;;;12.21;43.68
52105;BME280;38103;42.776;23.112;2023-02-19T07:11:47;94376.50;;;12.45;43.98
52105;BME280;38103;42.776;23.112;2023-02-19T07:14:14;94389.97;;;12.84;43.72
52105;BME280;38103;42.776;23.112;2023-02-19T07:16:40;94380.47;;;12.89;42.89
52105;BME280;38103;42.776;23.112;2023-02-19T07:19:05;94387.44;;;13.07;41.47
52105;BME280;38103;42.776;23.112;2023-02-19T07:21:31;94390.69;;;13.44;41.26
52105;BME280;38103;42.776;23.112;2023-02-19T07:24:02;94377.75;;;14.04;40.40
52105;BME280;38103;42.776;23.112;2023-02-19T07:26:28;94376.22;;;14.31;38.87
52105;BME280;38103;42.776;23.112;2023-02-19T07:28:53;94374.84;;;14.51;38.63
52105;BME280;38103;42.776;23.112;2023-02-19T07:31:21;94375.06;;;14.72;38.41
52105;BME280;38103;42.776;23.112;2023-02-19T07:33:47;94372.78;;;15.08;37.19
52105;BME280;38103;42.776;23.112;2023-02-19T07:36:13;94380.78;;;15.41;36.44
52105;BME280;38103;42.776;23.112;2023-02-19T07:38:40;94375.19;;;15.38;36.25
52105;BME280;38103;42.776;23.112;2023-02-19T07:41:06;94367.31;;;15.53;36.67
52105;BME280;38103;42.776;23.112;2023-02-19T07:43:33;94370.09;;;15.69;36.01
52105;BME280;38103;42.776;23.112;2023-02-19T07:46:10;94364.28;;;15.83;35.20
52105;BME280;38103;42.776;23.112;2023-02-19T07:48:37;94364.34;;;15.93;35.29
52105;BME280;38103;42.776;23.112;2023-02-19T07:51:04;94360.50;;;16.22;34.65
52105;BME280;38103;42.776;23.112;2023-02-19T07:53:31;94359.66;;;16.11;34.19
52105;BME280;38103;42.776;23.112;2023-02-19T07:56:02;94355.47;;;16.26;34.86
52105;BME280;38103;42.776;23.112;2023-02-19T07:58:28;94362.44;;;16.37;34.50
52105;BME280;38103;42.776;23.112;2023-02-19T08:00:53;94360.41;;;16.71;34.49
52105;BME280;38103;42.776;23.112;2023-02-19T08:03:19;94352.47;;;16.97;34.49
52105;BME280;38103;42.776;23.112;2023-02-19T08:05:44;94357.53;;;17.14;34.30
52105;BME280;38103;42.776;23.112;2023-02-19T08:08:12;94360.53;;;17.34;33.33
52105;BME280;38103;42.776;23.112;2023-02-19T08:10:38;94362.09;;;17.61;33.46
52105;BME280;38103;42.776;23.112;2023-02-19T08:13:23;94357.84;;;17.70;32.62
52105;BME280;38103;42.776;23.112;2023-02-19T08:16:13;94357.03;;;17.80;33.86
52105;BME280;38103;42.776;23.112;2023-02-19T08:18:40;94355.94;;;17.65;33.64
52105;BME280;38103;42.776;23.112;2023-02-19T08:21:05;94365.84;;;17.75;33.00
52105;BME280;38103;42.776;23.112;2023-02-19T08:23:31;94357.84;;;17.70;33.01
52105;BME280;38103;42.776;23.112;2023-02-19T08:25:57;94360.75;;;17.79;32.63
52105;BME280;38103;42.776;23.112;2023-02-19T08:28:23;94361.56;;;17.69;32.85
52105;BME280;38103;42.776;23.112;2023-02-19T08:30:49;94358.63;;;17.65;32.90
52105;BME280;38103;42.776;23.112;2023-02-19T10:00:59;94279.28;;;17.35;37.89
52105;BME280;38103;42.776;23.112;2023-02-19T10:03:37;94267.50;;;17.46;37.53
52105;BME280;38103;42.776;23.112;2023-02-19T10:06:26;94260.03;;;17.48;37.95
52105;BME280;38103;42.776;23.112;2023-02-19T10:09:21;94260.84;;;17.28;36.92
52105;BME280;38103;42.776;23.112;2023-02-19T10:11:48;94255.50;;;17.28;38.39
52105;BME280;38103;42.776;23.112;2023-02-19T10:14:35;94240.28;;;17.07;37.34
52105;BME280;38103;42.776;23.112;2023-02-19T10:17:04;94208.25;;;16.81;38.19
52105;BME280;38103;42.776;23.112;2023-02-19T10:19:31;94246.16;;;16.94;37.99
52105;BME280;38103;42.776;23.112;2023-02-19T10:21:57;94244.03;;;16.75;35.74
52105;BME280;38103;42.776;23.112;2023-02-19T10:24:26;94241.84;;;16.40;36.01
52105;BME280;38103;42.776;23.112;2023-02-19T10:26:53;94231.69;;;16.32;36.03
52105;BME280;38103;42.776;23.112;2023-02-19T10:29:19;94224.97;;;16.14;36.32
52105;BME280;38103;42.776;23.112;2023-02-19T10:31:46;94211.56;;;15.98;36.30
52105;BME280;38103;42.776;23.112;2023-02-19T10:34:21;94216.63;;;15.94;36.26
52105;BME280;38103;42.776;23.112;2023-02-19T10:36:48;94211.28;;;15.84;35.56
52105;BME280;38103;42.776;23.112;2023-02-19T10:41:47;94206.53;;;16.02;36.59
52105;BME280;38103;42.776;23.112;2023-02-19T10:44:16;94199.94;;;16.20;35.06
52105;BME280;38103;42.776;23.112;2023-02-19T10:46:47;94199.41;;;16.18;36.46
52105;BME280;38103;42.776;23.112;2023-02-19T10:49:19;94193.81;;;16.25;36.23
52105;BME280;38103;42.776;23.112;2023-02-19T10:51:47;94186.81;;;16.13;35.37
52105;BME280;38103;42.776;23.112;2023-02-19T10:54:24;94176.88;;;15.93;35.32
52105;BME280;38103;42.776;23.112;2023-02-19T10:56:50;94179.03;;;15.91;36.01
52105;BME280;38103;42.776;23.112;2023-02-19T11:01:55;94138.31;;;16.16;36.92
52105;BME280;38103;42.776;23.112;2023-02-19T11:04:21;94154.06;;;16.55;35.58
52105;BME280;38103;42.776;23.112;2023-02-19T11:06:47;94159.13;;;16.61;35.50
52105;BME280;38103;42.776;23.112;2023-02-19T11:11:57;94151.13;;;16.61;34.91
52105;BME280;38103;42.776;23.112;2023-02-19T11:14:24;94148.19;;;16.68;34.59
52105;BME280;38103;42.776;23.112;2023-02-19T11:16:53;94132.94;;;16.90;35.19
52105;BME280;38103;42.776;23.112;2023-02-19T11:19:44;94126.50;;;16.96;33.00
52105;BME280;38103;42.776;23.112;2023-02-19T11:22:19;94111.03;;;17.03;33.91
52105;BME280;38103;42.776;23.112;2023-02-19T11:24:52;94100.84;;;17.11;33.78
52105;BME280;38103;42.776;23.112;2023-02-19T11:27:20;94112.31;;;17.11;34.33
52105;BME280;38103;42.776;23.112;2023-02-19T11:29:46;94089.59;;;17.14;34.56
52105;BME280;38103;42.776;23.112;2023-02-19T11:32:27;94099.72;;;17.27;34.47
52105;BME280;38103;42.776;23.112;2023-02-19T11:35:13;94095.69;;;17.40;34.46
52105;BME280;38103;42.776;23.112;2023-02-19T11:37:59;94090.13;;;17.31;32.21
52105;BME280;38103;42.776;23.112;2023-02-19T11:40:53;94087.66;;;17.40;33.79
52105;BME280;38103;42.776;23.112;2023-02-19T11:43:46;94080.97;;;17.43;33.21
52105;BME280;38103;42.776;23.112;2023-02-19T11:46:34;94072.97;;;17.38;33.44
52105;BME280;38103;42.776;23.112;2023-02-19T12:05:37;94042.06;;;17.21;32.42
52105;BME280;38103;42.776;23.112;2023-02-19T12:08:15;94038.75;;;17.40;33.31
52105;BME280;38103;42.776;23.112;2023-02-19T12:16:22;94003.44;;;17.48;32.59
52105;BME280;38103;42.776;23.112;2023-02-19T12:19:15;94015.78;;;17.39;32.35
52105;BME280;38103;42.776;23.112;2023-02-19T12:35:48;93979.75;;;17.71;32.08
52105;BME280;38103;42.776;23.112;2023-02-19T12:41:09;93972.16;;;17.84;31.28
52105;BME280;38103;42.776;23.112;2023-02-19T12:43:52;93965.78;;;17.80;31.58
52105;BME280;38103;42.776;23.112;2023-02-19T12:46:27;93963.72;;;17.71;31.34
52105;BME280;38103;42.776;23.112;2023-02-19T12:49:04;93959.41;;;17.75;31.25
52105;BME280;38103;42.776;23.112;2023-02-19T12:56:42;93934.88;;;17.98;31.00
52105;BME280;38103;42.776;23.112;2023-02-19T12:59:14;93933.44;;;18.11;30.87
52105;BME280;38103;42.776;23.112;2023-02-19T13:01:55;93933.88;;;18.18;31.15
52105;BME280;38103;42.776;23.112;2023-02-19T13:04:31;93928.59;;;18.13;31.41
52105;BME280;38103;42.776;23.112;2023-02-19T13:09:46;93915.78;;;18.10;30.31
52105;BME280;38103;42.776;23.112;2023-02-19T13:12:34;93914.06;;;18.19;31.13
52105;BME280;38103;42.776;23.112;2023-02-19T13:15:28;93904.59;;;18.33;30.70
52105;BME280;38103;42.776;23.112;2023-02-19T13:17:57;93894.91;;;18.37;31.48
52105;BME280;38103;42.776;23.112;2023-02-19T13:20:29;93892.69;;;18.44;30.81
52105;BME280;38103;42.776;23.112;2023-02-19T13:23:18;93886.09;;;18.36;30.43
52105;BME280;38103;42.776;23.112;2023-02-19T13:26:22;93883.31;;;18.17;30.37
52105;BME280;38103;42.776;23.112;2023-02-19T13:29:21;93877.09;;;18.27;30.34
52105;BME280;38103;42.776;23.112;2023-02-19T13:32:20;93847.94;;;18.01;31.35
52105;BME280;38103;42.776;23.112;2023-02-19T13:34:52;93878.63;;;18.33;30.43
52105;BME280;38103;42.776;23.112;2023-02-19T13:37:20;93831.53;;;17.83;29.80
52105;BME280;38103;42.776;23.112;2023-02-19T13:39:48;93868.28;;;17.96;31.06
52105;BME280;38103;42.776;23.112;2023-02-19T13:42:33;93853.94;;;17.87;30.41
52105;BME280;38103;42.776;23.112;2023-02-19T13:45:01;93857.47;;;18.07;30.50
52105;BME280;38103;42.776;23.112;2023-02-19T13:50:32;93852.59;;;18.39;30.77
52105;BME280;38103;42.776;23.112;2023-02-19T13:56:02;93846.09;;;17.96;29.46
52105;BME280;38103;42.776;23.112;2023-02-19T13:58:51;93839.50;;;17.88;30.32
52105;BME280;38103;42.776;23.112;2023-02-19T14:01:17;93842.22;;;18.07;30.56
52105;BME280;38103;42.776;23.112;2023-02-19T14:03:45;93847.72;;;18.22;30.15
52105;BME280;38103;42.776;23.112;2023-02-19T14:06:12;93839.28;;;18.09;29.86
52105;BME280;38103;42.776;23.112;2023-02-19T14:08:56;93834.56;;;18.01;29.68
52105;BME280;38103;42.776;23.112;2023-02-19T14:33:21;93831.63;;;17.72;34.42
52105;BME280;38103;42.776;23.112;2023-02-19T14:35:51;93824.69;;;17.71;33.60
52105;BME280;38103;42.776;23.112;2023-02-19T14:38:40;93827.41;;;17.66;34.76
52105;BME280;38103;42.776;23.112;2023-02-19T14:41:11;93824.06;;;17.50;34.29
52105;BME280;38103;42.776;23.112;2023-02-19T14:43:37;93812.75;;;17.34;35.77
52105;BME280;38103;42.776;23.112;2023-02-19T14:46:08;93815.50;;;17.23;35.34
52105;BME280;38103;42.776;23.112;2023-02-19T14:48:43;93809.09;;;17.19;35.95
52105;BME280;38103;42.776;23.112;2023-02-19T14:51:31;93814.00;;;17.06;35.34
52105;BME280;38103;42.776;23.112;2023-02-19T14:54:00;93813.00;;;16.97;35.36
52105;BME280;38103;42.776;23.112;2023-02-19T14:56:32;93811.78;;;16.79;36.48
52105;BME280;38103;42.776;23.112;2023-02-19T15:01:38;93806.81;;;16.61;37.62
52105;BME280;38103;42.776;23.112;2023-02-19T15:04:04;93816.69;;;16.61;37.45
52105;BME280;38103;42.776;23.112;2023-02-19T15:06:32;93817.84;;;16.44;37.83
52105;BME280;38103;42.776;23.112;2023-02-19T15:09:02;93812.06;;;16.26;37.90
52105;BME280;38103;42.776;23.112;2023-02-19T15:11:28;93815.06;;;16.14;38.60
52105;BME280;38103;42.776;23.112;2023-02-19T15:13:58;93821.50;;;15.97;38.35
52105;BME280;38103;42.776;23.112;2023-02-19T15:16:25;93819.38;;;15.89;38.92
52105;BME280;38103;42.776;23.112;2023-02-19T15:18:54;93825.28;;;15.81;38.21
52105;BME280;38103;42.776;23.112;2023-02-19T15:21:29;93826.38;;;15.69;38.36
52105;BME280;38103;42.776;23.112;2023-02-19T15:23:58;93823.72;;;15.64;38.68
52105;BME280;38103;42.776;23.112;2023-02-19T15:26:34;93821.06;;;15.69;38.26
52105;BME280;38103;42.776;23.112;2023-02-19T15:29:03;93830.09;;;15.68;38.51
52105;BME280;38103;42.776;23.112;2023-02-19T15:31:29;93839.16;;;15.67;38.53
52105;BME280;38103;42.776;23.112;2023-02-19T15:33:54;93844.50;;;15.62;39.13
52105;BME280;38103;42.776;23.112;2023-02-19T15:36:26;93851.44;;;15.58;38.48
52105;BME280;38103;42.776;23.112;2023-02-19T15:38:54;93846.63;;;15.55;38.65
52105;BME280;38103;42.776;23.112;2023-02-19T15:41:21;93845.31;;;15.47;38.64
52105;BME280;38103;42.776;23.112;2023-02-19T15:43:52;93846.66;;;15.44;39.30
52105;BME280;38103;42.776;23.112;2023-02-19T15:46:21;93856.25;;;15.40;39.03
52105;BME280;38103;42.776;23.112;2023-02-19T15:51:44;93867.97;;;15.02;39.61
52105;BME280;38103;42.776;23.112;2023-02-19T15:57:21;93867.66;;;14.88;40.16
52105;BME280;38103;42.776;23.112;2023-02-19T16:00:04;93868.41;;;14.78;39.69
52105;BME280;38103;42.776;23.112;2023-02-19T16:02:34;93838.03;;;14.48;39.70
52105;BME280;38103;42.776;23.112;2023-02-19T16:05:00;93863.84;;;14.58;40.03
52105;BME280;38103;42.776;23.112;2023-02-19T16:07:30;93866.19;;;14.49;40.39
52105;BME280;38103;42.776;23.112;2023-02-19T16:10:20;93870.97;;;14.41;40.26
52105;BME280;38103;42.776;23.112;2023-02-19T16:12:59;93865.34;;;14.27;40.83
52105;BME280;38103;42.776;23.112;2023-02-19T16:15:26;93857.00;;;14.08;40.68
52105;BME280;38103;42.776;23.112;2023-02-19T16:17:53;93865.53;;;14.10;40.55
52105;BME280;38103;42.776;23.112;2023-02-19T16:20:25;93866.56;;;14.04;40.61
52105;BME280;38103;42.776;23.112;2023-02-19T16:22:56;93877.72;;;14.01;41.09
52105;BME280;38103;42.776;23.112;2023-02-19T16:25:39;93885.06;;;13.83;41.19
52105;BME280;38103;42.776;23.112;2023-02-19T16:28:12;93869.53;;;13.64;41.07
52105;BME280;38103;42.776;23.112;2023-02-19T16:30:42;93879.66;;;13.67;40.81
52105;BME280;38103;42.776;23.112;2023-02-19T16:33:26;93892.88;;;13.62;40.60
52105;BME280;38103;42.776;23.112;2023-02-19T16:35:56;93897.06;;;13.52;40.80
52105;BME280;38103;42.776;23.112;2023-02-19T16:38:22;93899.09;;;13.45;40.35
52105;BME280;38103;42.776;23.112;2023-02-19T16:43:22;93900.03;;;13.28;39.63
52105;BME280;38103;42.776;23.112;2023-02-19T16:45:48;93906.88;;;13.19;39.45